createdAt,value
2022-07-30T00:01:52.307Z,19.40
2022-07-30T00:04:42.500Z,19.40
2022-07-30T00:07:24.319Z,19.30
2022-07-30T00:10:13.499Z,19.30
2022-07-30T00:12:55.320Z,19.40
2022-07-30T00:15:43.457Z,19.30
2022-07-30T00:18:31.345Z,19.50
2022-07-30T00:21:20.319Z,19.40
2022-07-30T00:24:29.415Z,19.50
2022-07-30T00:27:17.572Z,19.40
2022-07-30T00:30:06.325Z,19.40
2022-07-30T00:32:54.493Z,19.30
2022-07-30T00:35:43.341Z,19.20
2022-07-30T00:38:40.385Z,19.10
2022-07-30T00:41:35.417Z,19.10
2022-07-30T00:44:23.638Z,19.20
2022-07-30T00:47:06.353Z,19.30
2022-07-30T00:49:55.539Z,19.00
2022-07-30T00:52:37.322Z,19.10
2022-07-30T00:55:27.616Z,19.00
2022-07-30T00:58:09.363Z,19.10
2022-07-30T01:00:57.581Z,19.00
2022-07-30T01:03:50.917Z,19.10
2022-07-30T01:06:55.621Z,19.30
2022-07-30T01:09:44.495Z,19.40
2022-07-30T01:12:34.341Z,19.50
2022-07-30T01:15:22.534Z,19.30
2022-07-30T01:18:07.354Z,19.10
2022-07-30T01:21:02.651Z,19.10
2022-07-30T01:23:49.351Z,18.70
2022-07-30T01:26:40.487Z,18.90
2022-07-30T01:29:31.381Z,19.00
2022-07-30T01:32:21.354Z,18.80
2022-07-30T01:35:05.594Z,18.60
2022-07-30T01:38:02.350Z,18.50
2022-07-30T01:40:52.777Z,18.50
2022-07-30T01:43:38.364Z,18.50
2022-07-30T01:46:30.602Z,18.50
2022-07-30T01:49:19.420Z,18.60
2022-07-30T01:52:09.842Z,18.50
2022-07-30T01:55:00.437Z,18.50
2022-07-30T01:57:48.604Z,18.50
2022-07-30T02:00:40.414Z,18.60
2022-07-30T02:03:29.579Z,18.60
2022-07-30T02:06:22.388Z,18.80
2022-07-30T02:09:13.689Z,18.80
2022-07-30T02:12:16.457Z,18.90
2022-07-30T02:15:12.533Z,19.20
2022-07-30T02:18:02.450Z,19.20
2022-07-30T02:20:54.192Z,18.90
2022-07-30T02:23:41.382Z,18.90
2022-07-30T02:26:31.562Z,18.80
2022-07-30T02:29:23.385Z,18.90
2022-07-30T02:32:16.579Z,19.10
2022-07-30T02:35:11.388Z,19.20
2022-07-30T02:38:09.362Z,19.20
2022-07-30T02:40:57.683Z,19.20
2022-07-30T02:43:40.385Z,19.10
2022-07-30T02:46:32.657Z,18.90
2022-07-30T02:49:40.376Z,18.70
2022-07-30T02:52:30.592Z,18.60
2022-07-30T02:55:20.468Z,18.50
2022-07-30T02:58:11.652Z,18.70
2022-07-30T03:01:01.457Z,18.90
2022-07-30T03:03:52.788Z,18.90
2022-07-30T03:06:42.399Z,18.70
2022-07-30T03:09:51.937Z,18.50
2022-07-30T03:12:36.453Z,18.50
2022-07-30T03:15:26.878Z,18.30
2022-07-30T03:18:09.409Z,18.30
2022-07-30T03:21:06.463Z,18.30
2022-07-30T03:23:55.624Z,18.40
2022-07-30T03:26:46.420Z,18.50
2022-07-30T03:29:36.623Z,18.50
2022-07-30T03:32:26.261Z,18.30
2022-07-30T03:35:17.229Z,18.30
2022-07-30T03:38:14.410Z,18.30
2022-07-30T03:41:03.987Z,18.40
2022-07-30T03:43:48.398Z,18.30
2022-07-30T03:46:39.658Z,18.40
2022-07-30T03:49:28.391Z,18.30
2022-07-30T03:52:17.665Z,18.30
2022-07-30T03:55:06.399Z,18.20
2022-07-30T03:57:57.378Z,18.20
2022-07-30T04:00:49.430Z,18.10
2022-07-30T04:03:39.715Z,18.10
2022-07-30T04:06:28.442Z,18.10
2022-07-30T04:09:17.634Z,18.20
2022-07-30T04:11:59.542Z,18.30
2022-07-30T04:14:49.643Z,18.40
2022-07-30T04:17:36.475Z,18.20
2022-07-30T04:20:29.666Z,18.20
2022-07-30T04:23:11.434Z,18.30
2022-07-30T04:25:59.788Z,18.20
2022-07-30T04:28:42.416Z,18.30
2022-07-30T04:31:30.608Z,18.40
2022-07-30T04:34:33.427Z,18.40
2022-07-30T04:37:30.445Z,18.50
2022-07-30T04:40:26.536Z,18.60
2022-07-30T04:43:14.642Z,18.70
2022-07-30T04:46:03.519Z,19.00
2022-07-30T04:48:48.149Z,18.80
2022-07-30T04:51:42.441Z,18.80
2022-07-30T04:54:33.576Z,18.80
2022-07-30T04:57:23.448Z,18.80
2022-07-30T05:00:05.650Z,19.00
2022-07-30T05:02:58.496Z,19.20
2022-07-30T05:05:41.720Z,19.20
2022-07-30T05:08:31.444Z,19.20
2022-07-30T05:11:19.647Z,19.40
2022-07-30T05:14:14.517Z,19.30
2022-07-30T05:17:03.091Z,19.30
2022-07-30T05:19:52.509Z,19.20
2022-07-30T05:22:42.829Z,19.20
2022-07-30T05:25:41.538Z,19.20
2022-07-30T05:28:32.672Z,19.30
2022-07-30T05:31:23.562Z,19.20
2022-07-30T05:34:15.563Z,19.40
2022-07-30T05:36:57.820Z,19.60
2022-07-30T05:40:02.233Z,19.80
2022-07-30T05:43:18.450Z,19.70
2022-07-30T05:46:06.644Z,19.60
2022-07-30T05:48:48.531Z,19.70
2022-07-30T05:51:36.595Z,19.70
2022-07-30T05:54:25.517Z,19.60
2022-07-30T05:57:35.786Z,19.60
2022-07-30T06:00:26.512Z,19.80
2022-07-30T06:03:14.585Z,19.50
2022-07-30T06:06:23.289Z,19.40
2022-07-30T06:09:11.678Z,19.30
2022-07-30T06:11:54.483Z,19.20
2022-07-30T06:14:46.715Z,19.40
2022-07-30T06:17:41.370Z,19.40
2022-07-30T06:20:36.713Z,19.60
2022-07-30T06:23:33.464Z,19.80
2022-07-30T06:26:27.594Z,19.70
2022-07-30T06:29:17.483Z,19.80
2022-07-30T06:32:05.700Z,19.80
2022-07-30T06:35:04.019Z,19.90
2022-07-30T06:38:07.193Z,20.20
2022-07-30T06:41:19.480Z,20.20
2022-07-30T06:44:12.660Z,19.90
2022-07-30T06:47:14.526Z,19.90
2022-07-30T06:50:04.873Z,19.80
2022-07-30T06:52:46.497Z,19.80
2022-07-30T06:55:34.632Z,20.00
2022-07-30T06:58:16.516Z,20.00
2022-07-30T07:01:36.787Z,19.90
2022-07-30T07:04:26.564Z,20.00
2022-07-30T07:07:31.505Z,20.10
2022-07-30T07:10:27.541Z,20.30
2022-07-30T07:13:20.366Z,20.60
2022-07-30T07:16:09.522Z,20.70
2022-07-30T07:19:02.702Z,20.70
2022-07-30T07:21:44.610Z,20.60
2022-07-30T07:24:34.675Z,20.50
2022-07-30T07:27:22.564Z,20.50
2022-07-30T07:30:14.720Z,20.50
2022-07-30T07:32:56.602Z,20.70
2022-07-30T07:35:48.835Z,20.60
2022-07-30T07:38:46.516Z,20.70
2022-07-30T07:41:29.895Z,20.70
2022-07-30T07:44:53.583Z,20.80
2022-07-30T07:47:53.069Z,21.00
2022-07-30T07:51:02.487Z,21.00
2022-07-30T07:54:11.746Z,21.00
2022-07-30T07:57:04.276Z,21.30
2022-07-30T08:00:02.580Z,21.60
2022-07-30T08:02:54.785Z,21.40
2022-07-30T08:05:56.939Z,21.40
2022-07-30T08:09:09.883Z,21.50
2022-07-30T08:12:16.666Z,21.70
2022-07-30T08:15:22.715Z,21.60
2022-07-30T08:18:06.512Z,21.40
2022-07-30T08:21:15.420Z,21.40
2022-07-30T08:23:58.563Z,21.30
2022-07-30T08:26:46.677Z,21.30
2022-07-30T08:29:36.533Z,21.40
2022-07-30T08:32:24.714Z,21.70
2022-07-30T08:35:14.635Z,21.80
2022-07-30T08:38:09.533Z,22.10
2022-07-30T08:41:05.577Z,22.20
2022-07-30T08:43:57.811Z,22.30
2022-07-30T08:46:49.536Z,22.30
2022-07-30T08:50:01.539Z,22.30
2022-07-30T08:52:48.549Z,22.40
2022-07-30T08:55:36.664Z,22.80
2022-07-30T08:58:36.552Z,22.80
2022-07-30T09:01:24.678Z,22.60
2022-07-30T09:04:14.593Z,22.50
2022-07-30T09:07:02.994Z,22.60
2022-07-30T09:09:52.555Z,22.60
2022-07-30T09:12:44.747Z,22.60
2022-07-30T09:15:35.609Z,22.70
2022-07-30T09:18:34.752Z,22.80
2022-07-30T09:21:31.569Z,23.20
2022-07-30T09:24:56.543Z,23.30
2022-07-30T09:27:58.371Z,23.20
2022-07-30T09:31:16.739Z,23.50
2022-07-30T09:34:38.731Z,23.50
2022-07-30T09:38:07.551Z,24.10
2022-07-30T09:41:17.253Z,24.50
2022-07-30T09:44:24.552Z,24.60
2022-07-30T09:47:19.558Z,24.40
2022-07-30T09:50:13.697Z,24.80
2022-07-30T09:53:17.571Z,24.90
2022-07-30T09:56:06.828Z,24.80
2022-07-30T09:58:49.565Z,24.70
2022-07-30T10:02:00.810Z,24.60
2022-07-30T10:05:22.572Z,24.70
2022-07-30T10:08:08.180Z,24.60
2022-07-30T10:11:08.690Z,25.10
2022-07-30T10:14:01.880Z,25.40
2022-07-30T10:16:43.957Z,25.20
2022-07-30T10:19:40.141Z,25.00
2022-07-30T10:22:42.681Z,24.90
2022-07-30T10:25:55.316Z,24.80
2022-07-30T10:28:58.637Z,25.20
2022-07-30T10:31:48.281Z,25.20
2022-07-30T10:34:46.589Z,25.20
2022-07-30T10:37:36.731Z,25.70
2022-07-30T10:40:40.592Z,25.90
2022-07-30T10:43:52.614Z,25.90
2022-07-30T10:46:47.856Z,26.00
2022-07-30T10:49:43.628Z,25.80
2022-07-30T10:52:53.807Z,25.70
2022-07-30T10:55:45.573Z,26.20
2022-07-30T10:58:33.763Z,25.90
2022-07-30T11:01:23.601Z,25.80
2022-07-30T11:04:29.655Z,25.80
2022-07-30T11:07:39.606Z,26.10
2022-07-30T11:10:43.835Z,26.10
2022-07-30T11:13:25.627Z,26.30
2022-07-30T11:16:15.317Z,26.20
2022-07-30T11:19:56.747Z,26.20
2022-07-30T11:22:44.692Z,26.40
2022-07-30T11:25:54.955Z,26.60
2022-07-30T11:28:57.605Z,26.60
2022-07-30T11:31:56.792Z,26.90
2022-07-30T11:34:56.700Z,27.20
2022-07-30T11:38:11.609Z,27.30
2022-07-30T11:41:24.603Z,27.30
2022-07-30T11:44:45.615Z,27.40
2022-07-30T11:47:35.837Z,27.20
2022-07-30T11:50:32.692Z,27.00
2022-07-30T11:53:25.854Z,27.10
2022-07-30T11:56:16.672Z,27.40
2022-07-30T11:59:19.643Z,27.40
2022-07-30T12:02:07.849Z,27.40
2022-07-30T12:04:58.687Z,27.40
2022-07-30T12:07:46.804Z,26.80
2022-07-30T12:10:36.660Z,26.60
2022-07-30T12:13:44.395Z,26.40
2022-07-30T12:16:32.710Z,26.50
2022-07-30T12:19:20.936Z,26.50
2022-07-30T12:22:07.643Z,26.70
2022-07-30T12:24:55.959Z,26.60
2022-07-30T12:27:38.630Z,26.60
2022-07-30T12:30:28.162Z,26.70
2022-07-30T12:33:09.638Z,26.60
2022-07-30T12:35:59.838Z,26.70
2022-07-30T12:39:00.661Z,26.30
2022-07-30T12:41:49.835Z,26.50
2022-07-30T12:44:55.642Z,26.60
2022-07-30T12:47:43.756Z,26.90
2022-07-30T12:50:34.633Z,27.20
2022-07-30T12:53:23.801Z,27.30
2022-07-30T12:56:25.652Z,27.50
2022-07-30T12:59:28.881Z,27.50
2022-07-30T13:02:11.711Z,27.50
2022-07-30T13:05:11.274Z,27.60
2022-07-30T13:08:03.663Z,27.80
2022-07-30T13:11:12.664Z,27.90
2022-07-30T13:14:01.993Z,28.00
2022-07-30T13:16:44.669Z,28.10
2022-07-30T13:19:34.948Z,28.20
2022-07-30T13:22:16.717Z,28.30
2022-07-30T13:25:04.792Z,28.00
2022-07-30T13:27:46.678Z,27.80
2022-07-30T13:30:34.869Z,28.10
2022-07-30T13:33:16.694Z,28.00
2022-07-30T13:36:07.089Z,27.90
2022-07-30T13:38:55.679Z,27.70
2022-07-30T13:41:37.094Z,27.80
2022-07-30T13:44:32.671Z,27.70
2022-07-30T13:47:20.920Z,28.10
2022-07-30T13:50:09.667Z,28.00
2022-07-30T13:53:02.697Z,28.20
2022-07-30T13:55:53.729Z,28.50
2022-07-30T13:58:42.173Z,28.50
2022-07-30T14:01:30.802Z,28.40
2022-07-30T14:04:18.891Z,28.50
2022-07-30T14:07:01.148Z,28.40
2022-07-30T14:09:54.340Z,28.70
2022-07-30T14:12:36.703Z,28.40
2022-07-30T14:15:26.089Z,28.10
2022-07-30T14:18:14.702Z,28.10
2022-07-30T14:20:55.939Z,28.40
2022-07-30T14:23:43.685Z,28.60
2022-07-30T14:26:30.227Z,28.50
2022-07-30T14:29:30.705Z,28.70
2022-07-30T14:32:20.000Z,28.40
2022-07-30T14:35:11.731Z,28.40
2022-07-30T14:37:59.864Z,28.70
2022-07-30T14:40:55.668Z,28.90
2022-07-30T14:43:45.883Z,28.40
2022-07-30T14:46:34.698Z,28.40
2022-07-30T14:49:24.118Z,29.10
2022-07-30T14:52:05.792Z,29.30
2022-07-30T14:54:53.905Z,29.20
2022-07-30T14:57:35.750Z,29.40
2022-07-30T15:00:25.831Z,29.60
2022-07-30T15:03:07.712Z,29.50
2022-07-30T15:05:55.939Z,29.30
2022-07-30T15:08:37.698Z,29.40
2022-07-30T15:11:25.917Z,29.30
2022-07-30T15:14:14.869Z,29.20
2022-07-30T15:17:06.009Z,28.60
2022-07-30T15:19:54.771Z,28.30
2022-07-30T15:22:42.935Z,28.20
2022-07-30T15:25:31.692Z,28.50
2022-07-30T15:28:20.496Z,28.60
2022-07-30T15:31:08.708Z,28.70
2022-07-30T15:33:58.910Z,28.50
2022-07-30T15:36:40.757Z,28.40
2022-07-30T15:39:35.760Z,28.20
2022-07-30T15:42:23.729Z,28.20
2022-07-30T15:45:21.377Z,28.70
2022-07-30T15:48:10.736Z,28.80
2022-07-30T15:50:53.930Z,28.50
2022-07-30T15:53:42.735Z,28.10
2022-07-30T15:56:26.478Z,28.20
2022-07-30T15:59:20.750Z,28.30
2022-07-30T16:02:08.962Z,28.00
2022-07-30T16:04:57.777Z,27.90
2022-07-30T16:07:47.854Z,28.10
2022-07-30T16:10:36.782Z,28.00
2022-07-30T16:13:28.924Z,28.10
2022-07-30T16:16:17.802Z,28.00
2022-07-30T16:19:06.007Z,27.60
2022-07-30T16:21:47.832Z,27.80
2022-07-30T16:24:38.022Z,28.10
2022-07-30T16:27:19.746Z,28.10
2022-07-30T16:30:07.889Z,28.10
2022-07-30T16:32:49.749Z,28.30
2022-07-30T16:35:49.214Z,28.50
2022-07-30T16:38:38.815Z,28.70
2022-07-30T16:41:35.795Z,28.60
2022-07-30T16:44:30.842Z,28.60
2022-07-30T16:47:18.873Z,28.50
2022-07-30T16:50:07.759Z,28.60
2022-07-30T16:52:56.022Z,28.60
2022-07-30T16:55:44.803Z,28.40
2022-07-30T16:59:24.201Z,28.30
2022-07-30T17:02:15.791Z,28.00
2022-07-30T17:10:00.996Z,27.90
2022-07-30T17:16:23.991Z,28.00
2022-07-30T17:22:43.169Z,27.90
2022-07-30T17:25:59.923Z,28.00
2022-07-30T17:28:46.758Z,28.20
2022-07-30T17:31:39.722Z,28.40
2022-07-30T17:34:52.858Z,28.90
2022-07-30T17:38:28.728Z,29.30
2022-07-30T17:41:59.022Z,29.70
2022-07-30T17:45:48.822Z,29.90
2022-07-30T17:48:58.050Z,29.50
2022-07-30T17:51:48.795Z,29.50
2022-07-30T17:54:30.988Z,29.30
2022-07-30T17:57:41.860Z,29.20
2022-07-30T18:00:26.020Z,29.10
2022-07-30T18:03:14.799Z,28.90
2022-07-30T18:06:00.070Z,28.80
2022-07-30T18:08:49.820Z,28.40
2022-07-30T18:11:32.931Z,28.40
2022-07-30T18:14:30.804Z,28.10
2022-07-30T18:17:48.822Z,27.90
2022-07-30T18:20:33.148Z,27.90
2022-07-30T18:23:34.977Z,27.70
2022-07-30T18:26:22.704Z,27.50
2022-07-30T18:29:26.817Z,27.40
2022-07-30T18:32:18.168Z,27.40
2022-07-30T18:35:12.046Z,27.40
2022-07-30T18:38:07.070Z,27.40
2022-07-30T18:41:09.888Z,27.70
2022-07-30T18:43:58.024Z,27.80
2022-07-30T18:46:46.859Z,27.70
2022-07-30T18:49:41.967Z,27.60
2022-07-30T18:52:30.059Z,27.50
2022-07-30T18:55:19.847Z,27.40
2022-07-30T18:58:09.989Z,27.30
2022-07-30T19:00:58.943Z,27.30
2022-07-30T19:03:46.965Z,27.40
2022-07-30T19:06:35.813Z,27.20
2022-07-30T19:09:24.026Z,27.30
2022-07-30T19:12:06.179Z,27.30
2022-07-30T19:14:56.025Z,27.20
2022-07-30T19:17:45.972Z,27.10
2022-07-30T19:20:34.983Z,27.10
2022-07-30T19:23:16.936Z,27.00
2022-07-30T19:26:05.887Z,27.00
2022-07-30T19:28:47.834Z,26.90
2022-07-30T19:31:38.208Z,26.90
2022-07-30T19:34:26.867Z,26.80
2022-07-30T19:37:15.103Z,26.60
2022-07-30T19:40:09.968Z,26.60
2022-07-30T19:43:09.308Z,26.70
2022-07-30T19:45:58.534Z,26.70
2022-07-30T19:48:50.588Z,26.70
2022-07-30T19:52:10.071Z,26.70
2022-07-30T19:55:41.911Z,26.60
2022-07-30T19:58:52.414Z,26.50
2022-07-30T20:01:41.916Z,26.20
2022-07-30T20:04:34.104Z,26.20
2022-07-30T20:07:16.849Z,26.20
2022-07-30T20:10:06.024Z,26.30
2022-07-30T20:12:57.900Z,26.30
2022-07-30T20:16:00.557Z,26.40
2022-07-30T20:18:52.170Z,26.30
2022-07-30T20:21:56.340Z,26.30
2022-07-30T20:24:56.017Z,26.20
2022-07-30T20:27:46.287Z,26.10
2022-07-30T20:30:37.881Z,25.90
2022-07-30T20:33:36.083Z,25.80
2022-07-30T20:36:28.868Z,25.90
2022-07-30T20:39:25.931Z,25.90
2022-07-30T20:42:18.886Z,25.80
2022-07-30T20:45:03.203Z,25.80
2022-07-30T20:47:52.910Z,25.70
2022-07-30T20:50:34.156Z,25.70
2022-07-30T20:53:22.931Z,25.50
2022-07-30T20:56:06.213Z,25.30
2022-07-30T20:58:57.993Z,25.30
2022-07-30T21:01:49.177Z,25.40
2022-07-30T21:05:00.910Z,25.50
2022-07-30T21:07:52.886Z,25.60
2022-07-30T21:10:48.956Z,25.50
2022-07-30T21:13:41.448Z,25.50
2022-07-30T21:16:26.836Z,25.50
2022-07-30T21:19:56.963Z,25.30
2022-07-30T21:22:46.105Z,25.40
2022-07-30T21:26:00.735Z,25.40
2022-07-30T21:28:49.116Z,25.50
2022-07-30T21:32:01.343Z,25.30
2022-07-30T21:34:47.097Z,25.40
2022-07-30T21:37:36.629Z,25.40
2022-07-30T21:40:33.962Z,25.30
2022-07-30T21:43:29.707Z,25.20
2022-07-30T21:46:41.821Z,25.20
2022-07-30T21:49:37.967Z,25.20
2022-07-30T21:52:26.001Z,25.30
2022-07-30T21:55:21.976Z,25.30
2022-07-30T21:58:10.121Z,25.20
2022-07-30T22:01:18.883Z,25.00
2022-07-30T22:04:09.303Z,25.10
2022-07-30T22:06:50.884Z,24.60
2022-07-30T22:09:43.050Z,24.40
2022-07-30T22:12:28.813Z,24.50
2022-07-30T22:15:18.132Z,24.50
2022-07-30T22:18:06.987Z,24.60
2022-07-30T22:20:50.117Z,24.60
2022-07-30T22:23:38.945Z,24.60
2022-07-30T22:26:21.174Z,24.40
2022-07-30T22:29:15.938Z,24.40
2022-07-30T22:32:06.234Z,24.50
2022-07-30T22:34:55.903Z,24.40
2022-07-30T22:37:47.046Z,24.40
2022-07-30T22:40:36.910Z,24.50
2022-07-30T22:43:33.277Z,24.20
2022-07-30T22:46:30.961Z,24.30
2022-07-30T22:49:24.370Z,24.30
2022-07-30T22:52:25.870Z,24.20
2022-07-30T22:55:22.022Z,24.10
2022-07-30T22:58:03.998Z,24.10
2022-07-30T23:00:52.091Z,23.90
2022-07-30T23:03:33.934Z,23.90
2022-07-30T23:06:22.149Z,23.80
2022-07-30T23:09:17.030Z,23.80
2022-07-30T23:12:09.145Z,23.70
2022-07-30T23:14:56.908Z,23.80
2022-07-30T23:17:46.083Z,23.60
2022-07-30T23:20:35.028Z,23.40
2022-07-30T23:23:23.194Z,23.30
2022-07-30T23:26:10.935Z,23.50
2022-07-30T23:29:00.963Z,23.30
2022-07-30T23:31:42.279Z,23.30
2022-07-30T23:34:36.950Z,23.50
2022-07-30T23:37:25.193Z,23.70
2022-07-30T23:40:21.973Z,23.50
2022-07-30T23:43:11.118Z,23.30
2022-07-30T23:46:02.028Z,23.50
2022-07-30T23:48:50.146Z,23.50
2022-07-30T23:51:44.980Z,23.50
2022-07-30T23:54:33.239Z,23.40
2022-07-30T23:57:14.978Z,23.10
